Time,TemperatureF,DewpointF,PressureIn,WindDirection,WindDirectionDegrees,WindSpeedMPH,WindSpeedGustMPH,Humidity,HourlyPrecipIn,Conditions,Clouds,dailyrainin,SoftwareType,DateUTC
2013-04-14 00:01:00,65.0,56.0,30.03,West,260,2.0,3.0,74,0.00,,,0.00,,2013-04-13 21:01:00,
2013-04-14 00:11:00,65.0,56.0,30.03,West,260,2.0,3.0,74,0.00,,,0.00,,2013-04-13 21:11:00,
2013-04-14 00:21:00,65.0,56.0,30.03,East,90,0.0,1.0,73,0.00,,,0.00,,2013-04-13 21:21:00,
2013-04-14 00:32:00,65.0,56.0,30.03,ENE,78,0.0,2.0,72,0.00,,,0.00,,2013-04-13 21:32:00,
2013-04-14 00:42:00,65.0,56.0,30.03,ENE,78,0.0,2.0,72,0.00,,,0.00,,2013-04-13 21:42:00,
2013-04-14 00:52:00,65.0,55.0,30.03,ESE,102,0.0,2.0,71,0.00,,,0.00,,2013-04-13 21:52:00,
2013-04-14 01:02:00,65.0,54.0,30.03,West,275,2.0,4.0,68,0.00,,,0.00,,2013-04-13 22:02:00,
2013-04-14 01:12:00,65.0,54.0,30.03,West,275,2.0,4.0,68,0.00,,,0.00,,2013-04-13 22:12:00,
2013-04-14 01:22:00,66.0,53.0,30.03,NNE,21,2.0,6.0,63,0.00,,,0.00,,2013-04-13 22:22:00,
2013-04-14 01:32:00,66.0,52.0,30.04,NW,325,2.0,9.0,61,0.00,,,0.00,,2013-04-13 22:32:00,
2013-04-14 01:42:00,66.0,52.0,30.04,NW,325,2.0,9.0,61,0.00,,,0.00,,2013-04-13 22:42:00,
2013-04-14 01:52:00,66.0,53.0,30.03,NNE,33,1.0,3.0,62,0.00,,,0.00,,2013-04-13 22:52:00,
2013-04-14 02:01:00,66.0,53.0,30.03,North,354,1.0,4.0,62,0.00,,,0.00,,2013-04-13 23:01:00,
2013-04-14 02:12:00,66.0,52.0,30.03,West,273,2.0,3.0,61,0.00,,,0.00,,2013-04-13 23:12:00,
2013-04-14 02:22:00,66.0,52.0,30.03,West,273,2.0,3.0,61,0.00,,,0.00,,2013-04-13 23:22:00,
2013-04-14 02:41:00,66.0,53.0,30.03,West,275,1.0,3.0,64,0.00,,,0.00,,2013-04-13 23:41:00,
2013-04-14 02:52:00,66.0,53.0,30.03,WSW,246,2.0,6.0,63,0.00,,,0.00,,2013-04-13 23:52:00,
2013-04-14 03:01:00,66.0,53.0,30.02,West,281,4.0,9.0,63,0.00,,,0.00,,2013-04-14 00:01:00,
2013-04-14 03:11:00,66.0,53.0,30.02,West,281,4.0,9.0,63,0.00,,,0.00,,2013-04-14 00:11:00,
2013-04-14 03:22:00,66.0,53.0,30.02,WNW,294,3.0,9.0,64,0.00,,,0.00,,2013-04-14 00:22:00,
2013-04-14 03:31:00,65.0,53.0,30.02,NE,47,1.0,3.0,65,0.00,,,0.00,,2013-04-14 00:31:00,
2013-04-14 03:41:00,65.0,53.0,30.02,NE,47,1.0,3.0,65,0.00,,,0.00,,2013-04-14 00:41:00,
2013-04-14 03:52:00,65.0,53.0,30.02,NE,47,1.0,3.0,65,0.00,,,0.00,,2013-04-14 00:52:00,
2013-04-14 04:02:00,65.0,53.0,30.02,North,358,2.0,4.0,66,0.00,,,0.00,,2013-04-14 01:02:00,
2013-04-14 04:11:00,65.0,53.0,30.02,North,358,2.0,4.0,66,0.00,,,0.00,,2013-04-14 01:11:00,
2013-04-14 04:22:00,64.0,53.0,30.02,NE,45,0.0,1.0,68,0.00,,,0.00,,2013-04-14 01:22:00,
2013-04-14 04:32:00,64.0,54.0,30.01,North,0,0.0,0.0,69,0.00,,,0.00,,2013-04-14 01:32:00,
2013-04-14 04:42:00,64.0,54.0,30.01,North,0,0.0,0.0,69,0.00,,,0.00,,2013-04-14 01:42:00,
2013-04-14 04:52:00,63.0,53.0,30.00,North,0,0.0,0.0,69,0.00,,,0.00,,2013-04-14 01:52:00,
2013-04-14 05:01:00,63.0,53.0,30.01,North,0,0.0,0.0,71,0.00,,,0.00,,2013-04-14 02:01:00,
2013-04-14 05:11:00,63.0,54.0,30.01,North,0,0.0,0.0,72,0.00,,,0.00,,2013-04-14 02:11:00,
2013-04-14 05:21:00,63.0,54.0,30.01,North,0,0.0,0.0,72,0.00,,,0.00,,2013-04-14 02:21:00,
2013-04-14 05:31:00,62.0,53.0,30.01,North,0,0.0,0.0,73,0.00,,,0.00,,2013-04-14 02:31:00,
2013-04-14 05:42:00,62.0,53.0,30.01,North,0,0.0,0.0,73,0.00,,,0.00,,2013-04-14 02:42:00,
2013-04-14 05:53:00,62.0,53.0,30.01,North,0,0.0,0.0,73,0.00,,,0.00,,2013-04-14 02:53:00,
2013-04-14 06:02:00,63.0,54.0,30.01,North,0,0.0,0.0,72,0.00,,,0.00,,2013-04-14 03:02:00,
2013-04-14 06:11:00,63.0,54.0,30.01,North,0,0.0,0.0,72,0.00,,,0.00,,2013-04-14 03:11:00,
2013-04-14 06:21:00,62.0,53.0,30.01,North,0,0.0,0.0,73,0.00,,,0.00,,2013-04-14 03:21:00,
2013-04-14 06:32:00,62.0,53.0,30.01,North,0,0.0,0.0,73,0.00,,,0.00,,2013-04-14 03:32:00,
2013-04-14 06:42:00,62.0,53.0,30.01,North,0,0.0,0.0,73,0.00,,,0.00,,2013-04-14 03:42:00,
2013-04-14 06:53:00,63.0,54.0,30.02,West,270,0.0,1.0,72,0.00,,,0.00,,2013-04-14 03:53:00,
2013-04-14 07:02:00,63.0,54.0,30.02,NE,45,1.0,3.0,72,0.00,,,0.00,,2013-04-14 04:02:00,
2013-04-14 07:12:00,63.0,54.0,30.02,NE,45,1.0,3.0,72,0.00,,,0.00,,2013-04-14 04:12:00,
2013-04-14 07:22:00,62.0,53.0,30.02,North,0,0.0,0.0,73,0.00,,,0.00,,2013-04-14 04:22:00,
2013-04-14 07:32:00,62.0,54.0,30.02,NNE,22,0.0,2.0,74,0.00,,,0.00,,2013-04-14 04:32:00,
2013-04-14 07:42:00,62.0,54.0,30.02,NNE,22,0.0,2.0,74,0.00,,,0.00,,2013-04-14 04:42:00,
2013-04-14 07:52:00,63.0,54.0,30.02,NE,54,0.0,2.0,73,0.00,,,0.00,,2013-04-14 04:52:00,
2013-04-14 08:01:00,63.0,54.0,30.02,NE,45,0.0,1.0,72,0.00,,,0.00,,2013-04-14 05:01:00,
2013-04-14 08:11:00,63.0,54.0,30.02,NE,45,0.0,1.0,72,0.00,,,0.00,,2013-04-14 05:11:00,
2013-04-14 08:22:00,64.0,54.0,30.03,North,0,0.0,0.0,71,0.00,,,0.00,,2013-04-14 05:22:00,
2013-04-14 08:32:00,65.0,54.0,30.02,North,0,0.0,0.0,68,0.00,,,0.00,,2013-04-14 05:32:00,
2013-04-14 08:42:00,65.0,54.0,30.02,North,0,0.0,0.0,68,0.00,,,0.00,,2013-04-14 05:42:00,
2013-04-14 08:52:00,66.0,55.0,30.02,NE,45,0.0,0.0,67,0.00,,,0.00,,2013-04-14 05:52:00,
2013-04-14 09:01:00,66.0,54.0,30.03,NE,45,0.0,3.0,65,0.00,,,0.00,,2013-04-14 06:01:00,
2013-04-14 09:11:00,66.0,54.0,30.03,NE,45,0.0,3.0,65,0.00,,,0.00,,2013-04-14 06:11:00,
2013-04-14 09:21:00,67.0,55.0,30.03,East,101,0.0,2.0,65,0.00,,,0.00,,2013-04-14 06:21:00,
2013-04-14 09:32:00,68.0,55.0,30.03,East,90,0.0,1.0,64,0.00,,,0.00,,2013-04-14 06:32:00,
2013-04-14 09:42:00,68.0,55.0,30.03,East,90,0.0,1.0,64,0.00,,,0.00,,2013-04-14 06:42:00,
2013-04-14 09:52:00,69.0,55.0,30.03,WSW,245,0.0,2.0,60,0.00,,,0.00,,2013-04-14 06:52:00,
2013-04-14 10:01:00,70.0,55.0,30.03,WSW,255,2.0,3.0,58,0.00,,,0.00,,2013-04-14 07:01:00,
2013-04-14 10:11:00,70.0,55.0,30.03,WSW,255,2.0,3.0,58,0.00,,,0.00,,2013-04-14 07:11:00,
2013-04-14 10:21:00,74.0,55.0,30.03,SW,224,1.0,3.0,51,0.00,,,0.00,,2013-04-14 07:21:00,
2013-04-14 10:31:00,74.0,54.0,30.03,West,274,2.0,3.0,49,0.00,,,0.00,,2013-04-14 07:31:00,
2013-04-14 10:42:00,74.0,54.0,30.03,West,274,2.0,3.0,49,0.00,,,0.00,,2013-04-14 07:42:00,
2013-04-14 10:52:00,75.0,55.0,30.03,WSW,247,2.0,3.0,49,0.00,,,0.00,,2013-04-14 07:52:00,
2013-04-14 11:01:00,73.0,55.0,30.02,West,270,3.0,4.0,53,0.00,,,0.00,,2013-04-14 08:01:00,
2013-04-14 11:11:00,73.0,55.0,30.02,West,270,3.0,4.0,53,0.00,,,0.00,,2013-04-14 08:11:00,
2013-04-14 11:21:00,78.0,55.0,30.02,WSW,247,1.0,3.0,45,0.00,,,0.00,,2013-04-14 08:21:00,
2013-04-14 11:31:00,77.0,55.0,30.02,NNE,31,2.0,3.0,47,0.00,,,0.00,,2013-04-14 08:31:00,
2013-04-14 11:42:00,77.0,55.0,30.02,NNE,31,2.0,3.0,47,0.00,,,0.00,,2013-04-14 08:42:00,
2013-04-14 11:52:00,78.0,55.0,30.02,NE,34,3.0,6.0,45,0.00,,,0.00,,2013-04-14 08:52:00,
2013-04-14 12:02:00,80.0,52.0,30.01,NNE,27,2.0,4.0,38,0.00,,,0.00,,2013-04-14 09:02:00,
2013-04-14 12:11:00,80.0,52.0,30.01,NNE,27,2.0,4.0,38,0.00,,,0.00,,2013-04-14 09:11:00,
2013-04-14 12:22:00,80.0,49.0,30.01,West,267,3.0,6.0,34,0.00,,,0.00,,2013-04-14 09:22:00,
2013-04-14 12:32:00,79.0,48.0,30.01,West,277,4.0,9.0,34,0.00,,,0.00,,2013-04-14 09:32:00,
2013-04-14 12:42:00,79.0,48.0,30.01,West,277,4.0,9.0,34,0.00,,,0.00,,2013-04-14 09:42:00,
2013-04-14 12:53:00,80.0,49.0,30.01,West,273,3.0,8.0,34,0.00,,,0.00,,2013-04-14 09:53:00,
2013-04-14 13:02:00,80.0,48.0,30.01,NW,304,3.0,9.0,33,0.00,,,0.00,,2013-04-14 10:02:00,
2013-04-14 13:12:00,80.0,48.0,30.01,NW,304,3.0,9.0,33,0.00,,,0.00,,2013-04-14 10:12:00,
2013-04-14 13:22:00,81.0,47.0,30.00,West,279,3.0,6.0,31,0.00,,,0.00,,2013-04-14 10:22:00,
2013-04-14 13:32:00,80.0,47.0,30.00,NW,310,4.0,8.0,32,0.00,,,0.00,,2013-04-14 10:32:00,
2013-04-14 13:42:00,80.0,47.0,30.00,NW,310,4.0,8.0,32,0.00,,,0.00,,2013-04-14 10:42:00,
2013-04-14 13:52:00,81.0,48.0,30.00,West,262,2.0,3.0,32,0.00,,,0.00,,2013-04-14 10:52:00,
2013-04-14 14:02:00,81.0,48.0,30.00,WSW,253,1.0,6.0,32,0.00,,,0.00,,2013-04-14 11:02:00,
2013-04-14 14:12:00,81.0,48.0,30.00,WSW,253,1.0,6.0,32,0.00,,,0.00,,2013-04-14 11:12:00,
2013-04-14 14:22:00,80.0,47.0,29.99,West,277,4.0,8.0,32,0.00,,,0.00,,2013-04-14 11:22:00,
2013-04-14 14:32:00,81.0,47.0,29.99,WNW,285,2.0,5.0,31,0.00,,,0.00,,2013-04-14 11:32:00,
2013-04-14 14:42:00,81.0,47.0,29.99,WNW,285,2.0,5.0,31,0.00,,,0.00,,2013-04-14 11:42:00,
2013-04-14 14:52:00,82.0,46.0,29.99,WNW,286,4.0,7.0,28,0.00,,,0.00,,2013-04-14 11:52:00,
2013-04-14 15:01:00,80.0,46.0,29.99,WNW,301,3.0,5.0,30,0.00,,,0.00,,2013-04-14 12:01:00,
2013-04-14 15:11:00,80.0,46.0,29.99,WNW,301,3.0,5.0,30,0.00,,,0.00,,2013-04-14 12:11:00,
2013-04-14 15:21:00,81.0,47.0,29.99,West,268,3.0,6.0,30,0.00,,,0.00,,2013-04-14 12:21:00,
2013-04-14 15:32:00,80.0,47.0,29.99,West,264,4.0,6.0,32,0.00,,,0.00,,2013-04-14 12:32:00,
2013-04-14 15:42:00,80.0,47.0,29.99,West,264,4.0,6.0,32,0.00,,,0.00,,2013-04-14 12:42:00,
2013-04-14 15:52:00,80.0,48.0,29.99,WNW,302,3.0,9.0,33,0.00,,,0.00,,2013-04-14 12:52:00,
2013-04-14 16:01:00,80.0,47.0,29.99,North,359,3.0,7.0,32,0.00,,,0.00,,2013-04-14 13:01:00,
2013-04-14 16:11:00,80.0,47.0,29.99,North,359,3.0,7.0,32,0.00,,,0.00,,2013-04-14 13:11:00,
2013-04-14 16:22:00,80.0,47.0,29.99,NE,49,4.0,9.0,32,0.00,,,0.00,,2013-04-14 13:22:00,
2013-04-14 16:32:00,83.0,49.0,29.98,SW,227,3.0,7.0,31,0.00,,,0.00,,2013-04-14 13:32:00,
2013-04-14 16:42:00,83.0,49.0,29.98,SW,227,3.0,7.0,31,0.00,,,0.00,,2013-04-14 13:42:00,
2013-04-14 16:52:00,78.0,47.0,29.99,West,267,2.0,4.0,33,0.00,,,0.00,,2013-04-14 13:52:00,
2013-04-14 17:02:00,79.0,49.0,29.99,NW,305,4.0,11.0,35,0.00,,,0.00,,2013-04-14 14:02:00,
2013-04-14 17:11:00,76.0,48.0,29.99,NNE,14,6.0,14.0,37,0.00,,,0.00,,2013-04-14 14:11:00,
2013-04-14 17:22:00,76.0,48.0,29.99,NNE,14,6.0,14.0,37,0.00,,,0.00,,2013-04-14 14:22:00,
2013-04-14 17:31:00,74.0,52.0,30.00,NNE,22,7.0,12.0,46,0.00,,,0.00,,2013-04-14 14:31:00,
2013-04-14 17:41:00,74.0,52.0,30.00,NNE,22,7.0,12.0,46,0.00,,,0.00,,2013-04-14 14:41:00,
2013-04-14 17:52:00,73.0,53.0,30.00,NE,40,6.0,16.0,50,0.00,,,0.00,,2013-04-14 14:52:00,
2013-04-14 18:02:00,71.0,54.0,30.01,NE,35,10.0,16.0,54,0.00,,,0.00,,2013-04-14 15:02:00,
2013-04-14 18:12:00,71.0,54.0,30.01,NE,35,10.0,16.0,54,0.00,,,0.00,,2013-04-14 15:12:00,
2013-04-14 18:22:00,69.0,53.0,30.02,NE,47,10.0,13.0,56,0.00,,,0.00,,2013-04-14 15:22:00,
2013-04-14 18:32:00,68.0,53.0,30.03,NNE,15,10.0,17.0,58,0.00,,,0.00,,2013-04-14 15:32:00,
2013-04-14 18:42:00,68.0,53.0,30.03,NNE,15,10.0,17.0,58,0.00,,,0.00,,2013-04-14 15:42:00,
2013-04-14 18:53:00,67.0,51.0,30.04,NE,44,11.0,16.0,57,0.00,,,0.00,,2013-04-14 15:53:00,
2013-04-14 19:03:00,66.0,51.0,30.05,NNE,24,8.0,13.0,59,0.00,,,0.00,,2013-04-14 16:03:00,
2013-04-14 19:12:00,66.0,51.0,30.05,NNE,24,8.0,13.0,59,0.00,,,0.00,,2013-04-14 16:12:00,
2013-04-14 19:22:00,66.0,51.0,30.04,NE,55,8.0,13.0,59,0.00,,,0.00,,2013-04-14 16:22:00,
2013-04-14 19:32:00,66.0,50.0,30.04,NNE,29,8.0,17.0,57,0.00,,,0.00,,2013-04-14 16:32:00,
2013-04-14 19:42:00,66.0,50.0,30.04,NNE,29,8.0,17.0,57,0.00,,,0.00,,2013-04-14 16:42:00,
2013-04-14 19:53:00,65.0,49.0,30.04,NE,40,10.0,15.0,56,0.00,,,0.00,,2013-04-14 16:53:00,
2013-04-14 20:01:00,65.0,49.0,30.04,NNE,27,8.0,14.0,56,0.00,,,0.00,,2013-04-14 17:01:00,
2013-04-14 20:12:00,65.0,49.0,30.04,NNE,27,8.0,14.0,56,0.00,,,0.00,,2013-04-14 17:12:00,
2013-04-14 20:22:00,65.0,49.0,30.04,North,359,7.0,9.0,56,0.00,,,0.00,,2013-04-14 17:22:00,
2013-04-14 20:32:00,65.0,49.0,30.05,NE,54,7.0,10.0,57,0.00,,,0.00,,2013-04-14 17:32:00,
2013-04-14 20:42:00,65.0,49.0,30.05,NE,54,7.0,10.0,57,0.00,,,0.00,,2013-04-14 17:42:00,
2013-04-14 20:52:00,65.0,49.0,30.05,NNE,18,5.0,10.0,57,0.00,,,0.00,,2013-04-14 17:52:00,
2013-04-14 21:02:00,64.0,48.0,30.05,NE,42,5.0,8.0,57,0.00,,,0.00,,2013-04-14 18:02:00,
2013-04-14 21:12:00,64.0,48.0,30.05,NE,42,5.0,8.0,57,0.00,,,0.00,,2013-04-14 18:12:00,
2013-04-14 21:21:00,65.0,49.0,30.06,NNW,328,3.0,6.0,57,0.00,,,0.00,,2013-04-14 18:21:00,
2013-04-14 21:32:00,65.0,50.0,30.06,West,259,1.0,3.0,58,0.00,,,0.00,,2013-04-14 18:32:00,
2013-04-14 21:42:00,65.0,50.0,30.06,West,259,1.0,3.0,58,0.00,,,0.00,,2013-04-14 18:42:00,
2013-04-14 21:53:00,64.0,50.0,30.05,NNW,343,1.0,3.0,60,0.00,,,0.00,,2013-04-14 18:53:00,
2013-04-14 22:02:00,64.0,50.0,30.06,NE,45,0.0,1.0,60,0.00,,,0.00,,2013-04-14 19:02:00,
2013-04-14 22:11:00,64.0,50.0,30.06,NE,45,0.0,1.0,60,0.00,,,0.00,,2013-04-14 19:11:00,
2013-04-14 22:22:00,64.0,49.0,30.05,NNE,33,2.0,5.0,58,0.00,,,0.00,,2013-04-14 19:22:00,
2013-04-14 22:32:00,64.0,48.0,30.05,East,86,0.0,2.0,57,0.00,,,0.00,,2013-04-14 19:32:00,
2013-04-14 22:42:00,64.0,48.0,30.05,East,86,0.0,2.0,57,0.00,,,0.00,,2013-04-14 19:42:00,
2013-04-14 22:52:00,64.0,49.0,30.05,NE,45,0.0,0.0,58,0.00,,,0.00,,2013-04-14 19:52:00,
2013-04-14 23:02:00,64.0,47.0,30.05,ENE,63,1.0,4.0,55,0.00,,,0.00,,2013-04-14 20:02:00,
2013-04-14 23:11:00,64.0,47.0,30.05,ENE,63,1.0,4.0,55,0.00,,,0.00,,2013-04-14 20:11:00,
2013-04-14 23:21:00,64.0,48.0,30.05,South,178,1.0,4.0,56,0.00,,,0.00,,2013-04-14 20:21:00,
2013-04-14 23:32:00,64.0,47.0,30.06,WNW,299,1.0,2.0,55,0.00,,,0.00,,2013-04-14 20:32:00,
2013-04-14 23:42:00,64.0,47.0,30.06,WNW,299,1.0,2.0,55,0.00,,,0.00,,2013-04-14 20:42:00,
2013-04-14 23:52:00,63.0,46.0,30.06,East,95,0.0,1.0,54,0.00,,,0.00,,2013-04-14 20:52:00,